Time;durP1;ratioP1;P1;durP2;ratioP2;P2;SDS_P1;SDS_P2;PMS_P1;PMS_P2;Temp;Humidity;BMP_temperature;BMP_pressure;BME280_temperature;BME280_humidity;BME280_pressure;Samples;Min_cycle;Max_cycle;Signal;HPM_P1;HPM_P2
2022/02/09 00:02:07;;;;;;;4.93;2.83;;;;;;;;;;5074454;28;20185;-83
2022/02/09 00:04:41;;;;;;;5.83;2.90;;;;;;;;;;5073880;28;20185;-83
2022/02/09 00:07:11;;;;;;;5.63;2.33;;;;;;;;;;5074183;28;20615;-83
2022/02/09 00:09:44;;;;;;;2.90;2.17;;;;;;;;;;5073818;28;20228;-83
2022/02/09 00:12:17;;;;;;;3.47;2.33;;;;;;;;;;5073774;28;20581;-82
2022/02/09 00:14:55;;;;;;;4.17;2.47;;;;;;;;;;5073653;28;20185;-85
2022/02/09 00:20:45;;;;;;;2.27;1.80;;;;;;;;;;5070522;28;20232;-83
2022/02/09 00:42:49;;;;;;;3.27;2.63;;;;;;;;;;5065810;28;20233;-83
2022/02/09 01:57:20;;;;;;;3.97;1.70;;;;;;;;;;5072793;28;20249;-82
2022/02/09 01:59:48;;;;;;;4.17;2.17;;;;;;;;;;5072452;28;20280;-82
2022/02/09 02:02:16;;;;;;;3.27;1.90;;;;;;;;;;5071985;28;20241;-82
2022/02/09 02:04:47;;;;;;;1.80;1.70;;;;;;;;;;5072082;28;20193;-82
2022/02/09 02:07:25;;;;;;;4.07;2.17;;;;;;;;;;5071972;28;20181;-81
2022/02/09 02:09:58;;;;;;;3.33;2.50;;;;;;;;;;5071828;28;20217;-83
2022/02/09 02:12:26;;;;;;;4.90;2.13;;;;;;;;;;5072461;28;20200;-83
2022/02/09 02:14:59;;;;;;;3.30;1.90;;;;;;;;;;5071993;28;20242;-83
2022/02/09 02:17:33;;;;;;;4.53;2.30;;;;;;;;;;5072483;28;20579;-83
2022/02/09 02:20:12;;;;;;;4.53;2.63;;;;;;;;;;5073026;28;20588;-83
2022/02/09 02:22:59;;;;;;;5.57;3.10;;;;;;;;;;5072537;28;20201;-83
2022/02/09 02:25:45;;;;;;;4.23;3.50;;;;;;;;;;5072066;28;20215;-83
2022/02/09 02:36:52;;;;;;;2.83;1.97;;;;;;;;;;5048941;28;20225;-83
2022/02/09 02:39:44;;;;;;;2.57;2.07;;;;;;;;;;5072014;28;20187;-83
2022/02/09 02:56:45;;;;;;;3.53;1.93;;;;;;;;;;5048929;28;20204;-83
2022/02/09 03:12:59;;;;;;;2.53;2.00;;;;;;;;;;5066303;28;20197;-82
2022/02/09 03:15:34;;;;;;;4.17;2.30;;;;;;;;;;5075009;28;20189;-83
2022/02/09 03:18:21;;;;;;;2.40;1.97;;;;;;;;;;5074851;28;20695;-82
2022/02/09 03:20:53;;;;;;;2.83;2.00;;;;;;;;;;5075209;28;20687;-82
2022/02/09 03:23:40;;;;;;;5.97;2.57;;;;;;;;;;5075196;28;20193;-82
2022/02/09 03:26:30;;;;;;;4.10;2.33;;;;;;;;;;5075808;28;20246;-82
2022/02/09 03:42:52;;;;;;;2.13;1.93;;;;;;;;;;5074573;28;20711;-82
2022/02/09 03:54:05;;;;;;;8.53;3.17;;;;;;;;;;5151447;27;20542;-82
2022/02/09 03:56:54;;;;;;;3.20;2.37;;;;;;;;;;5151398;27;20278;-80
2022/02/09 03:59:21;;;;;;;3.43;2.53;;;;;;;;;;5151420;27;20209;-81
2022/02/09 04:01:49;;;;;;;5.07;2.53;;;;;;;;;;5151001;27;20244;-81
2022/02/09 04:04:16;;;;;;;3.87;2.13;;;;;;;;;;5151146;27;20194;-81
2022/02/09 04:06:45;;;;;;;2.73;2.37;;;;;;;;;;5151243;27;20685;-81
2022/02/09 04:09:20;;;;;;;4.80;2.30;;;;;;;;;;5151678;27;20247;-82
2022/02/09 04:11:53;;;;;;;6.70;1.90;;;;;;;;;;5151253;27;20213;-82
2022/02/09 04:14:28;;;;;;;9.37;3.20;;;;;;;;;;5149884;27;20186;-81
2022/02/09 04:17:07;;;;;;;6.57;2.63;;;;;;;;;;5150122;27;20182;-82
2022/02/09 04:19:43;;;;;;;2.97;2.67;;;;;;;;;;5148687;27;20198;-81
2022/02/09 04:22:55;;;;;;;5.37;3.03;;;;;;;;;;5149538;27;20239;-82
2022/02/09 04:36:35;;;;;;;4.60;2.60;;;;;;;;;;5149610;27;20232;-81
2022/02/09 04:39:11;;;;;;;2.70;2.50;;;;;;;;;;5149577;27;20658;-82
2022/02/09 04:42:03;;;;;;;5.90;2.87;;;;;;;;;;5149623;27;20559;-81
2022/02/09 04:44:43;;;;;;;7.23;2.43;;;;;;;;;;5148881;27;20182;-81
2022/02/09 04:50:07;;;;;;;3.63;3.07;;;;;;;;;;5138547;27;20270;-82
2022/02/09 04:52:54;;;;;;;6.47;2.80;;;;;;;;;;5148854;27;20316;-82
2022/02/09 04:55:39;;;;;;;4.47;2.83;;;;;;;;;;5149355;27;20195;-82
2022/02/09 04:58:15;;;;;;;4.97;3.40;;;;;;;;;;5148599;27;20209;-83
2022/02/09 05:00:51;;;;;;;8.00;3.20;;;;;;;;;;5149176;27;20638;-82
2022/02/09 05:22:46;;;;;;;6.30;3.10;;;;;;;;;;5117030;27;20197;-85
2022/02/09 05:25:40;;;;;;;4.40;3.47;;;;;;;;;;5136014;27;20190;-83
2022/02/09 05:28:10;;;;;;;4.50;3.77;;;;;;;;;;5135595;27;20285;-83
2022/02/09 05:30:40;;;;;;;5.20;3.37;;;;;;;;;;5136000;27;20195;-83
2022/02/09 05:33:07;;;;;;;5.00;2.97;;;;;;;;;;5135790;27;20225;-83
2022/02/09 05:35:34;;;;;;;9.73;3.67;;;;;;;;;;5135983;27;20213;-83
2022/02/09 05:38:02;;;;;;;7.70;4.77;;;;;;;;;;5135536;27;20195;-83
2022/02/09 05:40:29;;;;;;;7.43;2.90;;;;;;;;;;5135554;27;20697;-84
2022/02/09 05:42:58;;;;;;;9.30;3.37;;;;;;;;;;5135367;27;20197;-83
2022/02/09 05:45:31;;;;;;;5.83;2.93;;;;;;;;;;5135538;27;20199;-84
2022/02/09 05:48:42;;;;;;;7.43;3.10;;;;;;;;;;5135745;27;20256;-84
2022/02/09 05:51:04;;;;;;;6.07;2.83;;;;;;;;;;5135234;27;20574;-84
2022/02/09 05:53:43;;;;;;;2.57;2.37;;;;;;;;;;5135254;27;20766;-84
2022/02/09 05:56:21;;;;;;;4.40;3.07;;;;;;;;;;5135466;27;20576;-85
2022/02/09 05:59:02;;;;;;;6.53;3.70;;;;;;;;;;5135479;27;20189;-86
2022/02/09 06:01:29;;;;;;;7.47;3.17;;;;;;;;;;5135669;27;20255;-86
2022/02/09 06:03:58;;;;;;;9.23;3.73;;;;;;;;;;5135891;27;20202;-88
2022/02/09 06:06:25;;;;;;;3.60;2.80;;;;;;;;;;5135540;27;20195;-87
2022/02/09 06:08:52;;;;;;;9.43;3.20;;;;;;;;;;5135558;27;20201;-88
2022/02/09 06:11:27;;;;;;;7.17;2.53;;;;;;;;;;5135454;27;20199;-89
2022/02/09 06:19:46;;;;;;;4.00;2.63;;;;;;;;;;5098961;27;20195;-90
2022/02/09 06:22:14;;;;;;;5.57;2.60;;;;;;;;;;5135724;27;20175;-88
2022/02/09 06:24:42;;;;;;;4.77;2.70;;;;;;;;;;5135720;27;20678;-88
2022/02/09 06:27:11;;;;;;;7.50;3.83;;;;;;;;;;5136268;27;20194;-89
2022/02/09 06:29:44;;;;;;;4.83;3.20;;;;;;;;;;5136898;27;20237;-89
2022/02/09 06:32:11;;;;;;;5.57;3.17;;;;;;;;;;5135384;27;20194;-89
2022/02/09 06:34:42;;;;;;;5.67;3.77;;;;;;;;;;5135337;27;20234;-88
2022/02/09 06:37:16;;;;;;;5.03;3.03;;;;;;;;;;5135306;27;20236;-88
2022/02/09 06:39:46;;;;;;;2.90;2.67;;;;;;;;;;5135237;27;20194;-87
2022/02/09 06:42:22;;;;;;;4.23;2.60;;;;;;;;;;5135671;27;20220;-87
2022/02/09 06:44:50;;;;;;;5.30;2.70;;;;;;;;;;5135828;27;20240;-88
2022/02/09 06:47:22;;;;;;;6.37;3.50;;;;;;;;;;5135583;27;20201;-88
2022/02/09 06:49:58;;;;;;;4.00;2.60;;;;;;;;;;5134900;27;20186;-87
2022/02/09 06:52:25;;;;;;;6.67;2.80;;;;;;;;;;5134616;27;20222;-88
2022/02/09 06:55:09;;;;;;;4.80;2.93;;;;;;;;;;5134810;27;20209;-88
2022/02/09 06:57:58;;;;;;;4.33;2.53;;;;;;;;;;5134938;27;20198;-88
2022/02/09 07:00:26;;;;;;;2.57;2.37;;;;;;;;;;5134954;27;20234;-87
2022/02/09 07:02:54;;;;;;;2.27;2.07;;;;;;;;;;5134687;27;20285;-88
2022/02/09 07:05:22;;;;;;;6.47;2.43;;;;;;;;;;5134600;27;20716;-88
2022/02/09 07:07:50;;;;;;;4.67;2.33;;;;;;;;;;5134740;27;20195;-88
2022/02/09 07:10:17;;;;;;;4.77;2.47;;;;;;;;;;5135017;27;20201;-88
2022/02/09 07:12:44;;;;;;;2.43;2.20;;;;;;;;;;5134707;27;20214;-88
2022/02/09 07:15:15;;;;;;;2.70;2.50;;;;;;;;;;5134433;27;20234;-89
2022/02/09 07:17:44;;;;;;;2.50;2.23;;;;;;;;;;5134431;27;20195;-88
2022/02/09 07:20:17;;;;;;;6.33;4.23;;;;;;;;;;5134735;27;20198;-88
2022/02/09 07:22:49;;;;;;;17.70;11.73;;;;;;;;;;5133797;27;20247;-88
2022/02/09 07:25:18;;;;;;;14.47;8.63;;;;;;;;;;5134555;27;20187;-87
2022/02/09 07:27:50;;;;;;;14.23;7.07;;;;;;;;;;5134176;27;20202;-89
2022/02/09 07:30:19;;;;;;;3.57;3.27;;;;;;;;;;5134323;27;20201;-88
2022/02/09 07:32:48;;;;;;;2.57;2.37;;;;;;;;;;5134329;27;20222;-89
2022/02/09 07:35:15;;;;;;;3.03;2.63;;;;;;;;;;5134142;27;20195;-89
2022/02/09 07:37:42;;;;;;;5.23;3.83;;;;;;;;;;5134302;27;20199;-90
2022/02/09 07:40:13;;;;;;;3.57;3.10;;;;;;;;;;5134079;27;20202;-88
2022/02/09 07:42:46;;;;;;;3.43;3.13;;;;;;;;;;5134314;27;20199;-87
2022/02/09 07:48:24;;;;;;;6.90;3.50;;;;;;;;;;5128409;27;20205;-88
2022/02/09 07:51:12;;;;;;;4.33;2.87;;;;;;;;;;5134138;27;20187;-88
2022/02/09 07:53:47;;;;;;;3.63;3.07;;;;;;;;;;5133540;27;20226;-88
2022/02/09 07:56:16;;;;;;;6.17;3.00;;;;;;;;;;5134395;27;20254;-88
2022/02/09 07:58:44;;;;;;;4.83;2.67;;;;;;;;;;5134500;27;20277;-86
2022/02/09 08:01:11;;;;;;;2.30;2.10;;;;;;;;;;5133841;27;20194;-88
2022/02/09 08:03:39;;;;;;;2.30;2.10;;;;;;;;;;5134177;27;20190;-87
2022/02/09 08:06:07;;;;;;;3.07;2.30;;;;;;;;;;5133883;27;20655;-89
2022/02/09 08:08:35;;;;;;;3.00;2.70;;;;;;;;;;5134177;27;20202;-89
2022/02/09 08:11:13;;;;;;;8.50;2.23;;;;;;;;;;5133663;27;20195;-89
2022/02/09 08:27:34;;;;;;;5.57;3.90;;;;;;;;;;5110441;27;20186;-90
2022/02/09 08:30:19;;;;;;;6.37;4.77;;;;;;;;;;5133942;27;20210;-92
2022/02/09 08:32:53;;;;;;;6.30;4.40;;;;;;;;;;5133781;27;20197;-90
2022/02/09 08:35:20;;;;;;;6.60;3.03;;;;;;;;;;5133941;27;20227;-90
2022/02/09 08:37:48;;;;;;;5.43;2.60;;;;;;;;;;5133649;27;20298;-89
2022/02/09 08:40:18;;;;;;;2.87;2.60;;;;;;;;;;5138912;27;20198;-89
2022/02/09 08:42:48;;;;;;;5.73;2.43;;;;;;;;;;5137363;27;20195;-89
2022/02/09 08:45:16;;;;;;;1.80;1.70;;;;;;;;;;5137408;27;20308;-88
2022/02/09 08:47:44;;;;;;;1.73;1.63;;;;;;;;;;5137116;27;20229;-90
2022/02/09 08:50:11;;;;;;;2.33;2.13;;;;;;;;;;5137348;27;20199;-90
2022/02/09 08:52:39;;;;;;;2.80;2.60;;;;;;;;;;5137416;27;20223;-90
2022/02/09 08:55:07;;;;;;;3.20;2.20;;;;;;;;;;5137234;27;20327;-90
2022/02/09 08:57:35;;;;;;;3.90;2.17;;;;;;;;;;5137002;27;20199;-90
2022/02/09 09:00:12;;;;;;;2.13;2.03;;;;;;;;;;5137114;27;20195;-90
2022/02/09 09:02:45;;;;;;;3.03;2.73;;;;;;;;;;5137176;27;20688;-90
2022/02/09 09:05:18;;;;;;;3.20;2.90;;;;;;;;;;5137352;27;20557;-90
2022/02/09 09:07:50;;;;;;;8.20;2.63;;;;;;;;;;5137208;27;20186;-91
2022/02/09 09:10:24;;;;;;;3.27;3.00;;;;;;;;;;5137521;27;20194;-89
2022/02/09 10:02:53;;;;;;;2.60;2.40;;;;;;;;;;5119959;27;20385;-90
2022/02/09 10:30:53;;;;;;;2.37;2.20;;;;;;;;;;5116825;27;20263;-90
2022/02/09 10:33:58;;;;;;;4.33;2.63;;;;;;;;;;5112090;27;20214;-92
2022/02/09 10:36:25;;;;;;;3.80;3.50;;;;;;;;;;5135268;27;20186;-90
2022/02/09 10:39:06;;;;;;;3.90;3.60;;;;;;;;;;5135363;27;20666;-91
2022/02/09 10:41:40;;;;;;;2.83;2.63;;;;;;;;;;5135238;27;20303;-90
2022/02/09 10:44:09;;;;;;;2.97;2.67;;;;;;;;;;5135548;27;20643;-90
2022/02/09 10:46:47;;;;;;;3.57;3.03;;;;;;;;;;5135091;27;20211;-89
2022/02/09 10:49:16;;;;;;;2.63;2.43;;;;;;;;;;5135086;27;20190;-91
2022/02/09 10:51:48;;;;;;;3.03;2.67;;;;;;;;;;5135155;27;20230;-90
2022/02/09 10:54:18;;;;;;;2.37;1.90;;;;;;;;;;5134861;27;20206;-90
2022/02/09 10:56:48;;;;;;;2.10;1.90;;;;;;;;;;5134937;27;20202;-90
2022/02/09 10:59:18;;;;;;;3.27;2.30;;;;;;;;;;5134983;27;20661;-91
2022/02/09 11:01:45;;;;;;;2.50;2.30;;;;;;;;;;5135093;27;20619;-90
2022/02/09 11:04:13;;;;;;;2.00;1.90;;;;;;;;;;5134815;27;20195;-91
2022/02/09 11:06:42;;;;;;;2.43;2.23;;;;;;;;;;5135941;27;20587;-91
2022/02/09 11:09:11;;;;;;;7.90;4.27;;;;;;;;;;5134539;27;20290;-90
2022/02/09 11:11:41;;;;;;;2.93;2.43;;;;;;;;;;5134441;27;20201;-91
2022/02/09 11:14:14;;;;;;;3.40;2.43;;;;;;;;;;5135607;27;20226;-90
2022/02/09 11:16:42;;;;;;;2.23;1.73;;;;;;;;;;5134718;27;20183;-90
2022/02/09 11:19:11;;;;;;;2.33;2.17;;;;;;;;;;5134354;27;20191;-91
2022/02/09 11:21:39;;;;;;;3.23;2.40;;;;;;;;;;5134366;27;20195;-90
2022/02/09 11:24:17;;;;;;;3.67;3.10;;;;;;;;;;5134518;27;20194;-91
2022/02/09 11:26:51;;;;;;;2.77;2.40;;;;;;;;;;5134657;27;20654;-90
2022/02/09 11:32:19;;;;;;;3.17;2.83;;;;;;;;;;5131461;27;20190;-90
2022/02/09 11:35:12;;;;;;;2.97;2.67;;;;;;;;;;5134038;27;20224;-90
2022/02/09 11:37:56;;;;;;;3.13;2.47;;;;;;;;;;5127155;27;20195;-91
2022/02/09 11:40:34;;;;;;;1.60;1.50;;;;;;;;;;5134448;27;20290;-91
2022/02/09 11:43:39;;;;;;;2.33;2.20;;;;;;;;;;5134359;27;20188;-91
2022/02/09 11:46:35;;;;;;;1.70;1.60;;;;;;;;;;5132335;27;20659;-91
2022/02/09 12:10:23;;;;;;;4.10;2.50;;;;;;;;;;5110799;28;20182;-90
2022/02/09 12:12:58;;;;;;;3.10;2.80;;;;;;;;;;5111384;28;20539;-90
2022/02/09 12:16:09;;;;;;;3.10;2.50;;;;;;;;;;5110753;28;20194;-90
2022/02/09 12:18:39;;;;;;;2.37;2.17;;;;;;;;;;5110482;28;20212;-90
2022/02/09 12:21:17;;;;;;;2.07;1.90;;;;;;;;;;5113297;28;20214;-90
2022/02/09 12:23:47;;;;;;;2.27;2.07;;;;;;;;;;5110648;28;20566;-90
2022/02/09 12:26:17;;;;;;;2.10;2.00;;;;;;;;;;5110669;28;20188;-90
2022/02/09 12:28:53;;;;;;;1.93;1.70;;;;;;;;;;5110546;28;20622;-90
2022/02/09 12:31:25;;;;;;;3.27;2.30;;;;;;;;;;5110513;28;20188;-90
2022/02/09 12:33:53;;;;;;;4.57;2.60;;;;;;;;;;5110453;28;20196;-90
2022/02/09 12:36:22;;;;;;;2.60;2.30;;;;;;;;;;5110826;28;20574;-90
2022/02/09 12:38:50;;;;;;;4.23;2.97;;;;;;;;;;5110187;28;20219;-90
2022/02/09 12:41:19;;;;;;;2.87;2.43;;;;;;;;;;5110276;28;20664;-90
2022/02/09 12:43:50;;;;;;;3.03;2.73;;;;;;;;;;5110361;28;20275;-90
2022/02/09 12:46:18;;;;;;;2.80;2.60;;;;;;;;;;5110663;28;20376;-90
2022/02/09 12:48:47;;;;;;;3.50;3.20;;;;;;;;;;5110252;28;20272;-90
2022/02/09 12:51:28;;;;;;;3.07;2.77;;;;;;;;;;5110255;28;20269;-91
2022/02/09 12:53:55;;;;;;;3.70;3.13;;;;;;;;;;5110947;28;20282;-90
2022/02/09 12:56:25;;;;;;;2.93;2.40;;;;;;;;;;5110258;28;20639;-90
2022/02/09 12:59:00;;;;;;;3.63;2.53;;;;;;;;;;5110284;28;20239;-90
2022/02/09 13:01:27;;;;;;;4.83;3.57;;;;;;;;;;5110091;28;20184;-90
2022/02/09 13:03:56;;;;;;;4.33;3.40;;;;;;;;;;5109964;28;20188;-90
2022/02/09 13:06:23;;;;;;;3.53;3.10;;;;;;;;;;5109803;28;20223;-90
2022/02/09 13:08:54;;;;;;;7.03;5.07;;;;;;;;;;5109719;28;20219;-89
2022/02/09 13:11:27;;;;;;;9.27;5.93;;;;;;;;;;5100255;28;20200;-90
2022/02/09 13:14:01;;;;;;;8.47;5.77;;;;;;;;;;5096169;28;20665;-90
2022/02/09 13:16:43;;;;;;;3.27;2.80;;;;;;;;;;5096376;28;20228;-90
2022/02/09 13:19:37;;;;;;;6.73;4.70;;;;;;;;;;5096273;28;20295;-90
2022/02/09 14:03:14;;;;;;;2.73;2.53;;;;;;;;;;5033170;28;20195;-92
2022/02/09 14:11:35;;;;;;;3.40;3.10;;;;;;;;;;5095222;28;20233;-91
2022/02/09 14:14:44;;;;;;;3.33;2.60;;;;;;;;;;5094766;28;20706;-91
2022/02/09 14:17:04;;;;;;;4.00;3.60;;;;;;;;;;5094375;28;20288;-91
2022/02/09 14:47:42;;;;;;;6.40;3.83;;;;;;;;;;5094435;28;20179;-91
2022/02/09 14:53:15;;;;;;;6.73;4.13;;;;;;;;;;5052359;28;20225;-91
2022/02/09 14:55:57;;;;;;;5.43;4.60;;;;;;;;;;5086748;28;20196;-90
2022/02/09 14:58:27;;;;;;;5.53;5.13;;;;;;;;;;5094187;28;20250;-91
2022/02/09 15:01:04;;;;;;;7.00;4.43;;;;;;;;;;5094269;28;20227;-91
2022/02/09 15:04:14;;;;;;;6.43;4.70;;;;;;;;;;5094993;28;20192;-91
2022/02/09 15:06:56;;;;;;;7.70;6.77;;;;;;;;;;5094857;28;20196;-91
2022/02/09 15:09:37;;;;;;;10.30;9.23;;;;;;;;;;5093912;28;20207;-91
2022/02/09 15:12:17;;;;;;;6.03;5.00;;;;;;;;;;5093807;28;20206;-91
2022/02/09 15:15:01;;;;;;;5.47;4.10;;;;;;;;;;5093736;28;20222;-91
2022/02/09 15:17:43;;;;;;;6.37;4.93;;;;;;;;;;5093885;28;20197;-91
2022/02/09 15:22:59;;;;;;;15.97;10.90;;;;;;;;;;5086839;28;20196;-90
2022/02/09 15:25:31;;;;;;;18.40;14.97;;;;;;;;;;5093947;28;20630;-91
2022/02/09 15:27:59;;;;;;;14.17;11.43;;;;;;;;;;5093587;28;20204;-91
2022/02/09 15:30:30;;;;;;;9.67;7.30;;;;;;;;;;5093599;28;20226;-91
2022/02/09 15:33:00;;;;;;;10.33;7.57;;;;;;;;;;5093510;28;20204;-91
2022/02/09 15:35:33;;;;;;;8.83;7.43;;;;;;;;;;5093496;28;20192;-90
2022/02/09 15:38:07;;;;;;;8.93;7.23;;;;;;;;;;5094105;28;20188;-91
2022/02/09 15:40:41;;;;;;;11.83;9.87;;;;;;;;;;5093194;28;20312;-91
2022/02/09 15:43:39;;;;;;;12.40;8.83;;;;;;;;;;5093316;28;20196;-91
2022/02/09 16:05:43;;;;;;;6.40;5.27;;;;;;;;;;5093443;28;20207;-90
2022/02/09 16:08:45;;;;;;;7.77;6.00;;;;;;;;;;5093584;28;20196;-91
2022/02/09 16:11:45;;;;;;;3.47;3.17;;;;;;;;;;5093508;28;20203;-90
2022/02/09 16:17:26;;;;;;;4.00;3.60;;;;;;;;;;5093351;28;20195;-90
2022/02/09 16:20:23;;;;;;;15.43;13.07;;;;;;;;;;5094796;28;20250;-90
2022/02/09 16:22:54;;;;;;;5.33;4.23;;;;;;;;;;5092633;28;20196;-90
2022/02/09 16:25:32;;;;;;;24.13;18.17;;;;;;;;;;5098822;28;20176;-90
2022/02/09 16:33:51;;;;;;;6.60;5.80;;;;;;;;;;5092840;28;20175;-91
2022/02/09 16:44:37;;;;;;;3.10;2.30;;;;;;;;;;5093394;28;20275;-90
2022/02/09 16:47:08;;;;;;;5.20;4.70;;;;;;;;;;5095850;28;20275;-90
2022/02/09 16:49:44;;;;;;;17.47;11.73;;;;;;;;;;5097148;28;20199;-90
2022/02/09 16:52:16;;;;;;;26.63;19.23;;;;;;;;;;5096472;28;20192;-90
2022/02/09 16:54:52;;;;;;;22.40;18.27;;;;;;;;;;5096691;28;20200;-90
2022/02/09 17:15:27;;;;;;;9.50;6.30;;;;;;;;;;5096282;28;20655;-88
2022/02/09 17:19:33;;;;;;;8.53;7.63;;;;;;;;;;5086434;28;20273;-90
2022/02/09 17:22:01;;;;;;;8.20;6.73;;;;;;;;;;5095747;28;20188;-90
2022/02/09 17:24:28;;;;;;;7.90;6.93;;;;;;;;;;5095872;28;20227;-90
2022/02/09 17:26:57;;;;;;;9.30;8.20;;;;;;;;;;5095607;28;20192;-90
2022/02/09 17:29:35;;;;;;;9.70;8.33;;;;;;;;;;5095760;28;20197;-90
2022/02/09 17:32:09;;;;;;;11.60;9.13;;;;;;;;;;5095613;28;20659;-91
2022/02/09 17:34:49;;;;;;;6.83;6.23;;;;;;;;;;5095858;28;20271;-90
2022/02/09 17:54:17;;;;;;;11.47;9.20;;;;;;;;;;5053512;28;20177;-90
2022/02/09 17:56:49;;;;;;;9.07;7.07;;;;;;;;;;5053327;28;20186;-90
2022/02/09 17:59:23;;;;;;;11.80;10.60;;;;;;;;;;5053071;28;20268;-90
2022/02/09 18:01:50;;;;;;;5.57;5.03;;;;;;;;;;5053021;28;20217;-90
2022/02/09 18:04:21;;;;;;;9.53;6.93;;;;;;;;;;5053073;28;20194;-90
2022/02/09 18:06:56;;;;;;;5.77;4.00;;;;;;;;;;5053659;28;20197;-88
2022/02/09 18:09:29;;;;;;;3.57;3.27;;;;;;;;;;5055145;28;20227;-90
2022/02/09 18:12:07;;;;;;;6.93;5.87;;;;;;;;;;5088844;28;20196;-90
2022/02/09 18:15:11;;;;;;;9.03;8.13;;;;;;;;;;5095173;28;20199;-89
2022/02/09 18:26:46;;;;;;;16.10;12.60;;;;;;;;;;5094920;28;20179;-90
2022/02/09 18:29:11;;;;;;;22.07;17.03;;;;;;;;;;5094363;28;20253;-91
2022/02/09 18:31:54;;;;;;;12.73;10.53;;;;;;;;;;5094858;28;20200;-90
2022/02/09 18:34:46;;;;;;;8.70;7.80;;;;;;;;;;5094856;28;20227;-91
2022/02/09 18:45:38;;;;;;;9.53;8.43;;;;;;;;;;5058091;28;20196;-90
2022/02/09 18:48:26;;;;;;;5.50;5.00;;;;;;;;;;5094195;28;20185;-89
2022/02/09 19:02:32;;;;;;;11.40;10.10;;;;;;;;;;5094197;28;20235;-90
2022/02/09 19:05:16;;;;;;;8.50;7.70;;;;;;;;;;5093713;28;20238;-90
2022/02/09 19:08:09;;;;;;;7.30;6.53;;;;;;;;;;5093448;28;20200;-90
2022/02/09 19:19:10;;;;;;;7.47;6.77;;;;;;;;;;5088078;28;20229;-91
2022/02/09 19:27:22;;;;;;;6.23;5.63;;;;;;;;;;5093553;28;20247;-90
2022/02/09 19:30:01;;;;;;;6.27;5.13;;;;;;;;;;5093268;28;20184;-90
2022/02/09 19:32:54;;;;;;;6.23;4.67;;;;;;;;;;5093284;28;20644;-90
2022/02/09 19:41:27;;;;;;;5.40;4.77;;;;;;;;;;5093202;28;20203;-90
2022/02/09 19:46:46;;;;;;;6.17;4.67;;;;;;;;;;5092569;28;20207;-90
2022/02/09 19:49:20;;;;;;;4.23;3.87;;;;;;;;;;5093320;28;20204;-90
2022/02/09 19:52:02;;;;;;;4.80;4.40;;;;;;;;;;5093644;28;20567;-90
2022/02/09 19:54:42;;;;;;;4.13;3.23;;;;;;;;;;5093757;28;20298;-90
2022/02/09 19:57:11;;;;;;;4.10;3.80;;;;;;;;;;5093180;28;20188;-90
2022/02/09 19:59:39;;;;;;;4.47;3.87;;;;;;;;;;5092791;28;20334;-89
2022/02/09 20:02:08;;;;;;;5.43;4.93;;;;;;;;;;5093157;28;20256;-89
2022/02/09 20:04:38;;;;;;;6.37;5.03;;;;;;;;;;5093262;28;20265;-90
2022/02/09 20:07:06;;;;;;;5.20;4.67;;;;;;;;;;5093214;28;20626;-90
2022/02/09 20:09:35;;;;;;;6.87;4.63;;;;;;;;;;5092836;28;20256;-90
2022/02/09 20:12:03;;;;;;;5.47;4.97;;;;;;;;;;5092968;28;20287;-90
2022/02/09 20:14:31;;;;;;;4.70;4.30;;;;;;;;;;5092746;28;20254;-90
2022/02/09 20:16:58;;;;;;;4.67;4.27;;;;;;;;;;5092688;28;20230;-89
2022/02/09 20:19:26;;;;;;;4.50;4.10;;;;;;;;;;5092670;28;20286;-90
2022/02/09 20:21:53;;;;;;;4.40;4.03;;;;;;;;;;5095619;28;20276;-90
2022/02/09 20:24:20;;;;;;;5.07;4.57;;;;;;;;;;5097079;28;20196;-91
2022/02/09 20:26:52;;;;;;;6.90;5.70;;;;;;;;;;5096517;28;20602;-90
2022/02/09 20:29:24;;;;;;;8.83;6.60;;;;;;;;;;5097362;28;20224;-90
2022/02/09 20:32:08;;;;;;;7.03;6.10;;;;;;;;;;5097387;28;20267;-90
2022/02/09 20:34:44;;;;;;;8.77;6.90;;;;;;;;;;5097021;28;20196;-90
2022/02/09 20:37:13;;;;;;;6.33;5.50;;;;;;;;;;5097397;28;20196;-91
2022/02/09 20:39:51;;;;;;;8.67;5.47;;;;;;;;;;5097217;28;20232;-90
2022/02/09 20:42:22;;;;;;;8.33;7.43;;;;;;;;;;5097324;28;20268;-90
2022/02/09 20:44:54;;;;;;;7.20;6.50;;;;;;;;;;5096382;28;20222;-90
2022/02/09 20:47:22;;;;;;;8.37;6.97;;;;;;;;;;5095636;28;20189;-90
2022/02/09 20:49:49;;;;;;;7.60;6.90;;;;;;;;;;5095988;28;20207;-90
2022/02/09 20:52:16;;;;;;;8.27;7.47;;;;;;;;;;5096046;28;20222;-90
2022/02/09 20:54:44;;;;;;;8.00;7.07;;;;;;;;;;5095630;28;20200;-90
2022/02/09 20:57:11;;;;;;;7.67;6.83;;;;;;;;;;5095919;28;20200;-90
2022/02/09 20:59:44;;;;;;;6.27;5.70;;;;;;;;;;5095163;28;20597;-89
2022/02/09 21:02:37;;;;;;;7.33;6.43;;;;;;;;;;5095490;28;20654;-90
2022/02/09 21:05:24;;;;;;;8.37;7.47;;;;;;;;;;5095659;28;20188;-91
2022/02/09 21:08:02;;;;;;;7.67;6.10;;;;;;;;;;5094878;28;20233;-90
2022/02/09 21:10:40;;;;;;;5.80;4.87;;;;;;;;;;5084067;28;20204;-90
2022/02/09 21:13:14;;;;;;;5.90;5.20;;;;;;;;;;5076417;28;20293;-90
2022/02/09 21:15:53;;;;;;;5.67;5.17;;;;;;;;;;5075055;28;20196;-90
2022/02/09 21:18:53;;;;;;;5.23;4.50;;;;;;;;;;5075006;28;20669;-91
2022/02/09 21:21:47;;;;;;;5.63;4.67;;;;;;;;;;5075094;28;20221;-91
2022/02/09 21:24:33;;;;;;;4.97;4.57;;;;;;;;;;5075894;28;20280;-90
2022/02/09 21:27:30;;;;;;;6.37;5.07;;;;;;;;;;5075518;28;20200;-90
2022/02/09 21:33:15;;;;;;;5.50;5.00;;;;;;;;;;5093940;28;20196;-91
2022/02/09 21:54:59;;;;;;;5.23;4.80;;;;;;;;;;5095469;28;20679;-90
2022/02/09 21:57:37;;;;;;;5.20;4.63;;;;;;;;;;5095469;28;20211;-90
2022/02/09 22:00:27;;;;;;;5.37;4.87;;;;;;;;;;5096070;28;20314;-90
2022/02/09 22:16:54;;;;;;;4.97;4.50;;;;;;;;;;5095142;28;20179;-89
2022/02/09 22:19:44;;;;;;;5.80;4.70;;;;;;;;;;5095150;28;20243;-90
2022/02/09 22:22:29;;;;;;;7.27;5.60;;;;;;;;;;5095657;28;20211;-90
2022/02/09 22:27:53;;;;;;;5.47;4.97;;;;;;;;;;5094639;28;20275;-90
2022/02/09 22:50:14;;;;;;;4.20;3.70;;;;;;;;;;5095301;28;20181;-90
2022/02/09 22:55:28;;;;;;;4.30;3.90;;;;;;;;;;5077577;28;20199;-90
2022/02/09 22:58:00;;;;;;;4.63;3.83;;;;;;;;;;5092946;28;20572;-89
2022/02/09 23:00:47;;;;;;;4.77;4.00;;;;;;;;;;5078627;28;20605;-90
2022/02/09 23:03:20;;;;;;;4.13;3.73;;;;;;;;;;5094324;28;20337;-90
2022/02/09 23:06:08;;;;;;;5.73;5.20;;;;;;;;;;5094938;28;20185;-90
2022/02/09 23:09:11;;;;;;;6.00;4.30;;;;;;;;;;5093965;28;20249;-90
2022/02/09 23:14:47;;;;;;;4.60;4.17;;;;;;;;;;5093864;28;20173;-90
2022/02/09 23:23:40;;;;;;;6.17;4.80;;;;;;;;;;5093951;28;20188;-90
2022/02/09 23:26:33;;;;;;;4.77;4.33;;;;;;;;;;5095070;28;20247;-90
2022/02/09 23:54:27;;;;;;;4.57;4.13;;;;;;;;;;5075056;28;20184;-91
2022/02/09 23:57:44;;;;;;;5.87;4.67;;;;;;;;;;5073493;28;20189;-90
